Time;durP1;ratioP1;P1;durP2;ratioP2;P2;SDS_P1;SDS_P2;PMS_P1;PMS_P2;Temp;Humidity;BMP_temperature;BMP_pressure;BME280_temperature;BME280_humidity;BME280_pressure;Samples;Min_cycle;Max_cycle;Signal;HPM_P1;HPM_P2
2023/04/16 00:00:04;;;;;;;13.57;4.35;;;;;;;7.14;100.00;102097.19;4990330;28;20026;-75
2023/04/16 00:02:30;;;;;;;11.65;4.30;;;;;;;7.15;100.00;102093.66;4988044;28;20077;-75
2023/04/16 00:04:56;;;;;;;12.40;4.40;;;;;;;7.15;100.00;102095.44;4988851;28;20474;-75
2023/04/16 00:07:21;;;;;;;11.43;3.95;;;;;;;7.16;100.00;102097.13;4987466;28;20104;-76
2023/04/16 00:09:46;;;;;;;8.95;4.15;;;;;;;7.14;100.00;102098.97;4990539;28;20058;-76
2023/04/16 00:12:13;;;;;;;16.15;4.55;;;;;;;7.15;100.00;102098.03;4989364;28;20037;-75
2023/04/16 00:14:39;;;;;;;8.68;4.40;;;;;;;7.15;100.00;102095.44;4989912;28;20088;-75
2023/04/16 00:17:04;;;;;;;11.98;4.53;;;;;;;7.15;100.00;102095.44;4990021;28;20054;-75
2023/04/16 00:19:30;;;;;;;9.85;4.57;;;;;;;7.11;100.00;102099.09;4990599;28;20030;-75
2023/04/16 00:21:55;;;;;;;12.38;4.30;;;;;;;7.10;100.00;102102.63;4985731;28;20018;-76
2023/04/16 00:24:22;;;;;;;17.38;5.47;;;;;;;7.12;100.00;102106.03;4989245;28;20045;-75
2023/04/16 00:26:47;;;;;;;13.98;4.53;;;;;;;7.09;100.00;102100.91;4989892;28;20386;-75
2023/04/16 00:29:13;;;;;;;14.27;4.85;;;;;;;7.13;100.00;102099.88;4988329;28;20038;-75
2023/04/16 00:31:42;;;;;;;10.07;4.43;;;;;;;7.16;100.00;102099.75;4987929;28;20026;-75
2023/04/16 00:34:08;;;;;;;12.85;4.85;;;;;;;7.13;100.00;102097.25;4984773;28;20505;-75
2023/04/16 00:36:33;;;;;;;12.50;4.85;;;;;;;7.16;100.00;102094.50;4989516;28;20022;-75
2023/04/16 00:38:58;;;;;;;10.80;4.75;;;;;;;7.18;100.00;102095.31;4987652;28;20030;-75
2023/04/16 00:41:25;;;;;;;11.85;4.90;;;;;;;7.15;100.00;102096.28;4989194;28;20049;-75
2023/04/16 00:43:50;;;;;;;13.90;5.25;;;;;;;7.12;100.00;102095.56;4989006;28;20034;-75
2023/04/16 00:46:17;;;;;;;14.75;5.05;;;;;;;7.13;100.00;102100.72;4989836;28;20030;-75
2023/04/16 00:48:44;;;;;;;13.07;5.28;;;;;;;7.12;100.00;102099.03;4989614;28;20033;-75
2023/04/16 00:51:10;;;;;;;10.48;5.07;;;;;;;7.12;100.00;102090.31;4989413;28;20030;-75
2023/04/16 00:53:36;;;;;;;11.27;4.78;;;;;;;7.12;100.00;102090.31;4990183;28;20029;-75
2023/04/16 00:56:06;;;;;;;10.48;5.10;;;;;;;7.14;100.00;102098.97;4987005;28;20058;-75
2023/04/16 00:58:33;;;;;;;15.00;6.05;;;;;;;7.16;100.00;102091.91;4989604;28;20487;-75
2023/04/16 01:01:01;;;;;;;15.15;5.78;;;;;;;7.15;100.00;102092.81;4990843;28;20057;-75
2023/04/16 01:03:46;;;;;;;11.82;5.43;;;;;;;7.22;100.00;102092.53;4988939;28;20539;-75
2023/04/16 01:06:12;;;;;;;9.93;5.63;;;;;;;7.22;100.00;102091.69;4989137;28;20034;-75
2023/04/16 01:08:37;;;;;;;12.27;6.00;;;;;;;7.22;100.00;102091.69;4986370;28;20022;-75
2023/04/16 01:11:04;;;;;;;11.13;5.72;;;;;;;7.20;100.00;102099.59;4987861;28;20038;-75
2023/04/16 01:13:31;;;;;;;13.50;5.40;;;;;;;7.23;100.00;102093.38;4988227;28;20483;-75
2023/04/16 01:15:57;;;;;;;14.27;6.05;;;;;;;7.21;100.00;102092.59;4989773;28;20026;-75
2023/04/16 01:18:23;;;;;;;10.57;5.82;;;;;;;7.25;100.00;102096.78;4988514;28;20026;-75
2023/04/16 01:20:50;;;;;;;14.93;6.38;;;;;;;7.22;100.00;102089.06;4989030;28;20105;-75
2023/04/16 01:23:17;;;;;;;10.40;5.90;;;;;;;7.25;100.00;102086.31;4988042;28;20100;-75
2023/04/16 01:25:43;;;;;;;12.05;6.30;;;;;;;7.27;100.00;102089.72;5002272;28;20058;-75
2023/04/16 01:28:08;;;;;;;11.63;6.70;;;;;;;7.30;100.00;102091.38;5002743;28;20033;-75
2023/04/16 01:30:36;;;;;;;12.93;6.43;;;;;;;7.26;100.00;102090.66;5004303;28;20018;-75
2023/04/16 01:33:06;;;;;;;16.75;7.07;;;;;;;7.30;100.00;102088.75;4986760;28;20034;-75
2023/04/16 01:35:31;;;;;;;15.63;6.53;;;;;;;7.31;100.00;102090.47;4989355;28;20057;-75
2023/04/16 01:37:57;;;;;;;14.98;6.68;;;;;;;7.33;100.00;102099.94;4988958;28;20054;-75
2023/04/16 01:40:22;;;;;;;13.82;7.03;;;;;;;7.32;100.00;102100.88;4989408;28;20081;-75
2023/04/16 01:42:48;;;;;;;13.65;7.05;;;;;;;7.32;100.00;102102.63;4988840;28;20043;-75
2023/04/16 01:45:13;;;;;;;16.50;7.55;;;;;;;7.33;100.00;102105.19;4986456;28;20023;-75
2023/04/16 01:47:39;;;;;;;13.63;7.55;;;;;;;7.33;100.00;102099.94;4987937;28;20026;-75
2023/04/16 01:50:05;;;;;;;15.70;7.90;;;;;;;7.37;100.00;102101.53;4989528;28;20464;-75
2023/04/16 01:52:31;;;;;;;12.10;7.97;;;;;;;7.35;100.00;102098.13;5004483;28;20033;-75
2023/04/16 01:54:56;;;;;;;15.98;8.75;;;;;;;7.37;100.00;102105.91;4989548;28;20026;-75
2023/04/16 01:57:23;;;;;;;14.40;8.95;;;;;;;7.36;100.00;102110.28;4989889;28;20030;-75
2023/04/16 01:59:48;;;;;;;13.70;8.23;;;;;;;7.37;100.00;102101.53;4988533;28;20027;-75
2023/04/16 02:02:15;;;;;;;14.48;8.80;;;;;;;7.38;100.00;102098.00;4989001;28;20489;-75
2023/04/16 02:04:42;;;;;;;14.73;8.48;;;;;;;7.40;100.00;102106.63;4988173;28;20030;-75
2023/04/16 02:07:08;;;;;;;14.98;8.70;;;;;;;7.36;100.00;102094.59;4989393;28;20026;-75
2023/04/16 02:09:36;;;;;;;16.13;8.85;;;;;;;7.36;100.00;102094.59;4990274;28;20034;-75
2023/04/16 02:12:02;;;;;;;12.55;9.07;;;;;;;7.35;100.00;102090.25;4989800;28;20023;-75
2023/04/16 02:14:28;;;;;;;13.90;9.18;;;;;;;7.38;100.00;102097.16;4987238;28;20038;-75
2023/04/16 02:16:53;;;;;;;11.77;8.70;;;;;;;7.39;100.00;102098.84;4989298;28;20026;-75
2023/04/16 02:19:19;;;;;;;14.43;9.23;;;;;;;7.39;100.00;102097.06;4987996;28;20112;-75
2023/04/16 02:21:45;;;;;;;15.23;9.07;;;;;;;7.40;100.00;102096.16;5004297;28;20058;-75
2023/04/16 02:24:11;;;;;;;17.45;9.40;;;;;;;7.41;100.00;102095.25;4989685;28;20112;-75
2023/04/16 02:26:36;;;;;;;12.90;8.85;;;;;;;7.45;100.00;102091.59;4975048;28;20050;-75
2023/04/16 02:29:01;;;;;;;12.63;9.20;;;;;;;7.42;100.00;102094.34;4991156;28;20038;-75
2023/04/16 02:31:27;;;;;;;14.65;9.40;;;;;;;7.43;100.00;102098.66;5006655;28;20026;-76
2023/04/16 02:33:53;;;;;;;13.98;9.15;;;;;;;7.44;100.00;102084.66;4991570;28;20026;-75
2023/04/16 02:36:19;;;;;;;12.30;8.68;;;;;;;7.43;100.00;102090.78;4990733;28;20030;-75
2023/04/16 02:38:47;;;;;;;15.52;8.85;;;;;;;7.44;100.00;102097.75;4983516;28;20052;-75
2023/04/16 02:41:12;;;;;;;16.58;9.60;;;;;;;7.46;100.00;102090.66;4980305;28;20037;-75
2023/04/16 02:43:37;;;;;;;13.93;9.00;;;;;;;7.47;100.00;102087.13;4990938;28;20027;-75
2023/04/16 02:46:03;;;;;;;15.88;9.45;;;;;;;7.50;100.00;102092.25;4991173;28;20030;-75
2023/04/16 02:48:30;;;;;;;12.88;8.77;;;;;;;7.51;100.00;102099.19;4990484;28;20026;-75
2023/04/16 02:50:55;;;;;;;18.02;9.70;;;;;;;7.52;100.00;102100.88;4990864;28;20038;-75
2023/04/16 02:53:20;;;;;;;16.92;9.80;;;;;;;7.49;100.00;102101.03;4989002;28;20041;-75
2023/04/16 02:55:51;;;;;;;13.32;9.38;;;;;;;7.48;100.00;102101.09;4991152;28;20054;-75
2023/04/16 02:58:17;;;;;;;18.27;10.48;;;;;;;7.50;100.00;102102.72;4991994;28;20019;-75
2023/04/16 03:00:42;;;;;;;14.55;10.55;;;;;;;7.48;100.00;102103.69;4992645;28;20101;-75
2023/04/16 03:03:07;;;;;;;16.63;10.68;;;;;;;7.50;100.00;102101.88;4990501;28;20034;-75
2023/04/16 03:05:32;;;;;;;14.75;10.30;;;;;;;7.51;100.00;102106.19;4992795;28;20053;-75
2023/04/16 03:07:58;;;;;;;15.70;11.10;;;;;;;7.51;100.00;102100.94;4992108;28;20475;-75
2023/04/16 03:10:23;;;;;;;17.23;11.63;;;;;;;7.53;100.00;102113.06;4988637;28;20027;-75
2023/04/16 03:12:49;;;;;;;16.92;11.90;;;;;;;7.52;100.00;102115.75;4991928;28;20068;-75
2023/04/16 03:15:14;;;;;;;17.90;11.80;;;;;;;7.54;100.00;102114.78;4988804;28;20122;-75
2023/04/16 03:17:40;;;;;;;15.48;11.90;;;;;;;7.51;100.00;102114.91;4991116;28;20494;-75
2023/04/16 03:20:08;;;;;;;19.35;12.80;;;;;;;7.52;100.00;102116.59;4991683;28;20022;-75
2023/04/16 03:22:33;;;;;;;18.58;12.52;;;;;;;7.51;100.00;102119.28;4992038;28;20509;-75
2023/04/16 03:24:58;;;;;;;17.20;13.27;;;;;;;7.53;100.00;102123.53;4990514;28;20026;-75
2023/04/16 03:27:26;;;;;;;17.35;13.10;;;;;;;7.51;100.00;102114.91;4989219;28;20132;-75
2023/04/16 03:29:51;;;;;;;17.23;12.85;;;;;;;7.54;100.00;102124.41;4974639;28;20135;-75
2023/04/16 03:32:17;;;;;;;19.70;13.32;;;;;;;7.54;100.00;102125.25;5000352;28;20460;-75
2023/04/16 03:34:42;;;;;;;17.77;14.18;;;;;;;7.52;100.00;102126.22;4990026;28;20026;-75
2023/04/16 03:37:10;;;;;;;19.98;14.25;;;;;;;7.51;100.00;102133.22;4990767;28;20030;-76
2023/04/16 03:39:36;;;;;;;24.08;15.20;;;;;;;7.51;100.00;102124.53;4987529;28;20487;-76
2023/04/16 03:42:02;;;;;;;19.75;14.88;;;;;;;7.51;100.00;102127.13;4990026;28;20121;-76
2023/04/16 03:44:28;;;;;;;22.52;16.10;;;;;;;7.50;100.00;102131.53;4988740;28;20092;-75
2023/04/16 03:46:57;;;;;;;20.58;15.90;;;;;;;7.49;100.00;102135.06;4991147;28;20033;-77
2023/04/16 03:49:23;;;;;;;21.35;17.08;;;;;;;7.50;100.00;102131.53;4990761;28;20034;-76
2023/04/16 03:51:48;;;;;;;25.52;17.60;;;;;;;7.51;100.00;102122.75;4989812;28;20081;-74
2023/04/16 03:54:13;;;;;;;21.50;16.77;;;;;;;7.53;100.00;102123.53;4990858;28;20383;-76
2023/04/16 03:56:41;;;;;;;23.10;17.55;;;;;;;7.52;100.00;102127.06;4991036;28;20029;-74
2023/04/16 03:59:06;;;;;;;21.38;16.75;;;;;;;7.53;100.00;102127.94;5004756;28;20035;-74
2023/04/16 04:01:32;;;;;;;22.88;17.35;;;;;;;7.48;100.00;102122.88;4987244;28;20033;-76
2023/04/16 04:03:57;;;;;;;23.42;17.45;;;;;;;7.46;100.00;102114.25;4987862;28;20454;-74
2023/04/16 04:06:23;;;;;;;23.02;18.13;;;;;;;7.48;100.00;102125.50;4989152;28;20034;-74
2023/04/16 04:08:48;;;;;;;23.25;16.90;;;;;;;7.47;100.00;102117.72;4991366;28;20475;-74
2023/04/16 04:11:16;;;;;;;23.50;16.88;;;;;;;7.47;100.00;102128.19;4991369;28;20444;-74
2023/04/16 04:13:42;;;;;;;20.42;16.00;;;;;;;7.48;100.00;102135.97;4989595;28;20037;-76
2023/04/16 04:16:07;;;;;;;22.92;16.40;;;;;;;7.47;100.00;102126.41;4989047;28;20026;-76
2023/04/16 04:18:32;;;;;;;21.08;16.42;;;;;;;7.45;100.00;102120.38;4990211;28;20060;-74
2023/04/16 04:20:58;;;;;;;24.27;16.02;;;;;;;7.46;100.00;102127.34;4989043;28;20097;-74
2023/04/16 04:23:23;;;;;;;18.90;14.77;;;;;;;7.46;100.00;102126.47;4988709;28;20045;-74
2023/04/16 04:25:49;;;;;;;24.52;16.30;;;;;;;7.45;100.00;102123.00;4984599;28;20034;-74
2023/04/16 04:28:16;;;;;;;21.50;15.88;;;;;;;7.47;100.00;102129.03;4990394;28;20041;-76
2023/04/16 04:30:42;;;;;;;24.98;15.73;;;;;;;7.49;100.00;102131.59;4991279;28;20096;-74
2023/04/16 04:33:07;;;;;;;24.23;16.23;;;;;;;7.47;100.00;102129.03;4990469;28;20105;-74
2023/04/16 04:35:33;;;;;;;29.73;16.88;;;;;;;7.50;100.00;102135.91;4987912;28;20065;-74
2023/04/16 04:37:58;;;;;;;22.00;16.02;;;;;;;7.47;100.00;102134.28;4988885;28;20132;-74
2023/04/16 04:40:23;;;;;;;22.30;15.75;;;;;;;7.48;100.00;102140.34;4987572;28;20112;-74
2023/04/16 04:42:49;;;;;;;22.40;15.57;;;;;;;7.49;100.00;102140.31;4990130;28;20136;-74
2023/04/16 04:45:15;;;;;;;23.35;16.25;;;;;;;7.48;100.00;102135.97;4988985;28;20030;-74
2023/04/16 04:47:40;;;;;;;20.00;15.68;;;;;;;7.49;100.00;102142.91;4988964;28;20114;-74
2023/04/16 04:50:06;;;;;;;23.35;15.63;;;;;;;7.48;100.00;102141.22;4987924;28;21270;-74
2023/04/16 04:52:32;;;;;;;24.25;16.05;;;;;;;7.48;100.00;102141.22;5003756;28;20071;-74
2023/04/16 04:55:05;;;;;;;24.33;16.63;;;;;;;7.45;100.00;102149.19;4987287;28;20786;-74
2023/04/16 04:57:31;;;;;;;27.48;16.95;;;;;;;7.47;100.00;102149.13;4982965;28;20089;-74
2023/04/16 04:59:56;;;;;;;27.00;16.60;;;;;;;7.48;100.00;102149.06;4970877;28;20022;-74
2023/04/16 05:02:22;;;;;;;26.75;16.70;;;;;;;7.49;100.00;102148.16;4978166;28;20473;-74
2023/04/16 05:04:47;;;;;;;34.22;17.27;;;;;;;7.47;100.00;102149.13;4989865;28;20026;-74
2023/04/16 05:07:14;;;;;;;26.55;16.42;;;;;;;7.49;100.00;102152.53;4988843;28;20450;-73
2023/04/16 05:09:39;;;;;;;25.85;16.70;;;;;;;7.48;100.00;102150.84;4989039;28;20498;-74
2023/04/16 05:12:04;;;;;;;28.65;17.20;;;;;;;7.49;100.00;102148.16;4984702;28;20022;-74
2023/04/16 05:14:30;;;;;;;25.90;17.38;;;;;;;7.53;100.00;102154.97;4984360;28;20030;-74
2023/04/16 05:16:55;;;;;;;23.95;17.30;;;;;;;7.53;100.00;102154.97;4989885;28;20034;-74
2023/04/16 05:19:20;;;;;;;27.92;17.00;;;;;;;7.53;100.00;102154.13;4989205;28;20109;-74
2023/04/16 05:21:46;;;;;;;25.38;16.55;;;;;;;7.51;100.00;102151.56;4990073;28;20026;-74
2023/04/16 05:24:11;;;;;;;29.33;17.30;;;;;;;7.53;100.00;102159.34;4988477;28;20050;-74
2023/04/16 05:26:38;;;;;;;25.65;17.15;;;;;;;7.52;100.00;102155.88;4988274;28;20543;-74
2023/04/16 05:29:03;;;;;;;24.15;16.52;;;;;;;7.52;100.00;102153.25;4989712;28;20080;-73
2023/04/16 05:31:28;;;;;;;26.10;16.83;;;;;;;7.52;100.00;102155.88;4989344;28;20399;-74
2023/04/16 05:33:54;;;;;;;21.55;16.05;;;;;;;7.52;100.00;102163.75;4990421;28;20075;-74
2023/04/16 05:36:19;;;;;;;25.30;16.35;;;;;;;7.53;100.00;102167.22;4989009;28;20038;-74
2023/04/16 05:38:44;;;;;;;25.58;16.27;;;;;;;7.52;100.00;102163.75;5003720;28;20030;-74
2023/04/16 05:41:11;;;;;;;23.58;16.15;;;;;;;7.54;100.00;102171.53;4987850;28;20021;-74
2023/04/16 05:43:36;;;;;;;29.67;17.35;;;;;;;7.55;100.00;102183.72;4988854;28;20108;-74
2023/04/16 05:46:02;;;;;;;23.48;16.05;;;;;;;7.55;100.00;102174.09;4988066;28;20026;-74
2023/04/16 05:48:27;;;;;;;24.10;16.50;;;;;;;7.56;100.00;102182.81;4989593;28;20022;-74
2023/04/16 05:51:01;;;;;;;25.05;16.13;;;;;;;7.54;100.00;102179.41;4988668;28;20034;-74
2023/04/16 05:53:26;;;;;;;24.30;16.63;;;;;;;7.57;100.00;102186.28;4986399;28;20483;-75
2023/04/16 05:55:52;;;;;;;25.15;15.90;;;;;;;7.60;100.00;102180.91;4989871;28;20081;-74
2023/04/16 05:58:17;;;;;;;23.58;16.20;;;;;;;7.59;100.00;102187.91;4991229;28;20022;-74
2023/04/16 06:00:44;;;;;;;26.10;16.35;;;;;;;7.59;100.00;102189.69;4991246;28;20865;-75
2023/04/16 06:03:10;;;;;;;25.73;17.38;;;;;;;7.59;100.00;102187.91;4991963;28;20030;-74
2023/04/16 06:05:35;;;;;;;28.50;16.85;;;;;;;7.62;100.00;102194.84;4992050;28;20030;-74
2023/04/16 06:08:00;;;;;;;30.20;17.20;;;;;;;7.63;100.00;102186.06;4991982;28;20394;-74
2023/04/16 06:10:26;;;;;;;23.58;16.60;;;;;;;7.65;100.00;102197.31;4992633;28;20447;-74
2023/04/16 06:12:51;;;;;;;23.95;17.00;;;;;;;7.66;100.00;102202.50;4992690;28;20035;-74
2023/04/16 06:15:17;;;;;;;27.48;16.80;;;;;;;7.64;100.00;102193.00;4993094;28;20027;-75
2023/04/16 06:17:42;;;;;;;23.95;16.58;;;;;;;7.65;100.00;102197.31;4992076;28;20038;-75
2023/04/16 06:20:08;;;;;;;26.60;16.70;;;;;;;7.65;100.00;102197.31;4992499;28;20023;-74
2023/04/16 06:22:33;;;;;;;27.65;17.25;;;;;;;7.68;100.00;102194.56;4992786;28;20030;-74
2023/04/16 06:24:58;;;;;;;23.55;16.88;;;;;;;7.66;100.00;102192.03;5007625;28;20180;-75
2023/04/16 06:27:24;;;;;;;25.58;16.38;;;;;;;7.69;100.00;102201.53;5009629;28;20095;-74
2023/04/16 06:29:50;;;;;;;27.65;16.60;;;;;;;7.70;100.00;102198.00;4992609;28;20058;-74
2023/04/16 06:32:16;;;;;;;27.27;16.77;;;;;;;7.69;100.00;102207.63;4993062;28;20023;-74
2023/04/16 06:34:41;;;;;;;24.23;16.52;;;;;;;7.72;100.00;102204.00;4992140;28;20594;-75
2023/04/16 06:37:07;;;;;;;29.17;16.20;;;;;;;7.75;100.00;102203.88;4991774;28;20110;-75
2023/04/16 06:39:32;;;;;;;30.25;17.20;;;;;;;7.76;100.00;102202.97;4990821;28;20019;-74
2023/04/16 06:41:57;;;;;;;31.40;17.17;;;;;;;7.76;100.00;102208.22;4990917;28;20675;-75
2023/04/16 06:44:23;;;;;;;29.70;17.17;;;;;;;7.81;100.00;102211.50;4990169;28;20041;-75
2023/04/16 06:46:49;;;;;;;29.63;16.88;;;;;;;7.81;100.00;102216.75;4991990;28;20112;-77
2023/04/16 06:49:14;;;;;;;25.80;16.67;;;;;;;7.82;100.00;102218.44;4989707;28;20102;-77
2023/04/16 06:51:40;;;;;;;26.05;16.50;;;;;;;7.85;100.00;102223.56;4991047;28;20038;-77
2023/04/16 06:54:06;;;;;;;34.53;16.70;;;;;;;7.86;100.00;102228.72;4989426;28;20040;-75
2023/04/16 06:56:31;;;;;;;29.50;15.98;;;;;;;7.89;100.00;102221.66;4993458;28;20033;-74
2023/04/16 06:58:57;;;;;;;23.85;15.82;;;;;;;7.93;100.00;102226.72;4994032;28;20026;-74
2023/04/16 07:01:23;;;;;;;26.33;16.42;;;;;;;7.90;100.00;102226.84;4991296;28;20559;-74
2023/04/16 07:03:48;;;;;;;28.23;16.02;;;;;;;7.94;100.00;102232.81;4989270;28;20117;-75
2023/04/16 07:06:17;;;;;;;24.30;15.70;;;;;;;7.93;100.00;102231.94;4988928;28;20380;-74
2023/04/16 07:08:44;;;;;;;23.77;15.73;;;;;;;7.98;100.00;102234.38;4990717;28;20053;-75
2023/04/16 07:11:09;;;;;;;27.75;17.02;;;;;;;7.98;100.00;102235.22;5007323;28;20034;-75
2023/04/16 07:13:35;;;;;;;27.35;17.27;;;;;;;7.98;100.00;102245.72;4992956;28;20022;-75
2023/04/16 07:16:01;;;;;;;29.33;17.30;;;;;;;8.01;100.00;102245.63;4991864;28;20041;-74
2023/04/16 07:18:26;;;;;;;30.15;17.60;;;;;;;8.04;100.00;102249.88;5007570;28;20014;-74
2023/04/16 07:20:52;;;;;;;28.98;18.13;;;;;;;7.98;100.00;102250.97;4992491;28;20025;-74
2023/04/16 07:23:21;;;;;;;31.80;17.90;;;;;;;8.02;100.00;102256.97;4989681;28;20022;-75
2023/04/16 07:25:47;;;;;;;38.28;18.58;;;;;;;7.99;100.00;102255.28;4992100;28;20157;-75
2023/04/16 07:28:15;;;;;;;31.23;17.95;;;;;;;8.05;100.00;102262.94;4991481;28;20097;-75
2023/04/16 07:30:40;;;;;;;33.58;18.55;;;;;;;8.05;100.00;102252.44;4991677;28;20049;-75
2023/04/16 07:33:10;;;;;;;36.00;19.00;;;;;;;8.06;100.00;102264.63;4989885;28;20030;-75
2023/04/16 07:35:36;;;;;;;29.17;18.73;;;;;;;8.06;100.00;102254.16;5000587;28;20506;-75
2023/04/16 07:38:04;;;;;;;31.40;18.77;;;;;;;8.07;100.00;102258.47;4993797;28;20015;-74
2023/04/16 07:40:30;;;;;;;32.97;18.65;;;;;;;8.11;100.00;102267.91;4996217;28;20036;-74
2023/04/16 07:42:56;;;;;;;32.80;19.05;;;;;;;8.11;100.00;102267.91;4989773;28;20046;-74
2023/04/16 07:45:23;;;;;;;30.65;18.52;;;;;;;8.13;100.00;102267.84;4989647;28;20053;-73
2023/04/16 07:47:48;;;;;;;30.67;19.15;;;;;;;8.16;100.00;102273.81;4986323;28;20022;-73
2023/04/16 07:50:15;;;;;;;28.98;19.25;;;;;;;8.17;100.00;102272.91;4991144;28;20022;-74
2023/04/16 07:52:44;;;;;;;34.65;20.08;;;;;;;8.18;100.00;102282.47;4990396;28;20042;-74
2023/04/16 07:55:09;;;;;;;32.63;19.52;;;;;;;8.21;100.00;102272.78;4989541;28;20049;-73
2023/04/16 07:57:36;;;;;;;35.10;19.52;;;;;;;8.21;100.00;102278.03;5001394;28;20054;-73
2023/04/16 08:00:06;;;;;;;35.42;21.05;;;;;;;8.17;100.00;102278.16;4987146;28;20030;-73
2023/04/16 08:02:31;;;;;;;35.50;20.10;;;;;;;8.20;100.00;102284.19;4991377;28;20113;-74
2023/04/16 08:05:01;;;;;;;36.72;20.08;;;;;;;8.23;100.00;102284.91;4990581;28;20108;-74
2023/04/16 08:07:26;;;;;;;36.85;20.00;;;;;;;8.24;100.00;102283.13;4985144;28;20034;-75
2023/04/16 08:09:53;;;;;;;31.75;20.08;;;;;;;8.26;100.00;102287.41;5005909;28;20137;-76
2023/04/16 08:12:19;;;;;;;34.03;20.55;;;;;;;8.28;100.00;102288.19;4990156;28;20022;-75
2023/04/16 08:14:45;;;;;;;34.33;20.15;;;;;;;8.29;100.00;102294.28;4991803;28;20143;-74
2023/04/16 08:17:11;;;;;;;36.33;19.85;;;;;;;8.31;100.00;102301.16;4990897;28;20037;-75
2023/04/16 08:19:41;;;;;;;33.65;20.05;;;;;;;8.35;100.00;102296.69;4990423;28;20053;-75
2023/04/16 08:22:07;;;;;;;33.35;20.42;;;;;;;8.34;100.00;102298.44;4991066;28;20026;-74
2023/04/16 08:24:33;;;;;;;33.22;20.52;;;;;;;8.40;100.00;102305.22;4990626;28;20027;-74
2023/04/16 08:27:01;;;;;;;37.97;20.65;;;;;;;8.35;100.00;102301.94;4986648;28;20018;-74
2023/04/16 08:29:27;;;;;;;32.70;20.20;;;;;;;8.35;100.00;102312.41;4985322;28;20474;-74
2023/04/16 08:31:53;;;;;;;40.55;21.92;;;;;;;8.36;100.00;102308.88;4989118;28;20023;-77
2023/04/16 08:34:18;;;;;;;35.28;22.05;;;;;;;8.37;100.00;102302.72;4989501;28;20384;-76
2023/04/16 08:36:44;;;;;;;35.10;20.33;;;;;;;8.40;100.00;102310.44;4991748;28;20113;-74
2023/04/16 08:39:10;;;;;;;33.85;20.45;;;;;;;8.41;100.00;102304.31;4997657;28;20105;-74
2023/04/16 08:41:39;;;;;;;35.80;21.45;;;;;;;8.44;100.00;102317.31;4989612;28;20141;-75
2023/04/16 08:44:12;;;;;;;34.95;21.63;;;;;;;8.46;100.00;102316.31;4989504;28;20030;-76
2023/04/16 08:46:40;;;;;;;34.60;20.23;;;;;;;8.47;100.00;102323.28;4990209;28;20031;-75
2023/04/16 08:49:06;;;;;;;39.58;21.75;;;;;;;8.48;100.00;102324.13;4988291;28;20042;-75
2023/04/16 08:51:35;;;;;;;34.40;21.20;;;;;;;8.52;100.00;102322.22;4989587;28;20030;-75
2023/04/16 08:54:08;;;;;;;40.70;21.15;;;;;;;8.55;100.00;102325.56;4988500;28;20022;-75
2023/04/16 08:56:36;;;;;;;35.65;20.75;;;;;;;8.59;100.00;102327.16;4988154;28;20487;-74
2023/04/16 08:59:05;;;;;;;35.88;19.92;;;;;;;8.62;100.00;102324.41;4997145;28;20032;-75
2023/04/16 09:01:37;;;;;;;37.47;21.33;;;;;;;8.65;100.00;102326.03;4987118;28;20034;-75
2023/04/16 09:04:05;;;;;;;36.13;20.25;;;;;;;8.70;100.00;102330.16;4988827;28;20026;-75
2023/04/16 09:06:32;;;;;;;40.80;21.67;;;;;;;8.73;100.00;102337.91;4989580;28;20041;-74
2023/04/16 09:08:58;;;;;;;30.75;20.40;;;;;;;8.74;100.00;102336.13;4999707;28;20034;-74
2023/04/16 09:11:25;;;;;;;36.40;20.45;;;;;;;8.72;100.00;102343.22;4989346;28;20035;-74
2023/04/16 09:13:51;;;;;;;35.00;19.67;;;;;;;8.72;100.00;102338.81;4993300;28;20410;-74
2023/04/16 09:16:17;;;;;;;36.05;20.27;;;;;;;8.71;100.00;102337.13;4988930;28;20026;-77
2023/04/16 09:18:42;;;;;;;34.60;20.52;;;;;;;8.75;100.00;102336.06;5005313;28;20076;-77
2023/04/16 09:21:11;;;;;;;33.50;19.98;;;;;;;8.76;100.00;102344.78;4989763;28;20426;-77
2023/04/16 09:23:40;;;;;;;31.77;20.77;;;;;;;8.77;100.00;102343.88;4989961;28;20018;-74
2023/04/16 09:26:05;;;;;;;39.67;19.58;;;;;;;8.77;100.00;102342.09;4997920;28;20109;-75
2023/04/16 09:28:52;;;;;;;34.88;19.65;;;;;;;8.83;100.00;102350.66;4988128;28;20126;-73
2023/04/16 09:31:18;;;;;;;36.20;20.55;;;;;;;8.86;100.00;102345.28;4991117;28;20035;-74
2023/04/16 09:34:01;;;;;;;32.33;19.38;;;;;;;8.94;100.00;102356.31;4994645;28;20026;-74
2023/04/16 09:36:26;;;;;;;33.10;19.83;;;;;;;8.90;100.00;102352.09;4993515;28;20027;-74
2023/04/16 09:38:53;;;;;;;37.63;20.05;;;;;;;8.95;100.00;102360.63;4992853;28;20509;-77
2023/04/16 09:41:31;;;;;;;29.23;19.50;;;;;;;8.94;100.00;102365.03;5008630;28;20052;-74
2023/04/16 09:44:05;;;;;;;31.73;19.13;;;;;;;8.98;100.00;102363.13;4993877;28;20048;-75
2023/04/16 09:46:32;;;;;;;31.92;18.65;;;;;;;9.00;100.00;102363.91;4991321;28;20541;-74
2023/04/16 09:49:07;;;;;;;34.95;20.17;;;;;;;9.02;100.00;102362.91;4994640;28;20081;-77
2023/04/16 09:51:37;;;;;;;35.33;19.77;;;;;;;9.07;100.00;102370.59;4992123;28;20041;-75
2023/04/16 09:54:04;;;;;;;29.95;18.13;;;;;;;9.07;100.00;102366.19;4991419;28;20041;-75
2023/04/16 09:56:33;;;;;;;30.35;19.52;;;;;;;9.11;100.00;102374.78;4993396;28;20394;-75
2023/04/16 09:59:01;;;;;;;34.17;19.05;;;;;;;9.10;100.00;102378.34;4991023;28;20034;-75
2023/04/16 10:01:29;;;;;;;32.42;19.95;;;;;;;9.12;100.00;102371.25;4991646;28;20467;-75
2023/04/16 10:03:55;;;;;;;33.25;20.20;;;;;;;9.09;100.00;102371.38;5008069;28;20034;-75
2023/04/16 10:06:22;;;;;;;26.83;18.38;;;;;;;9.09;100.00;102380.09;4991345;28;20068;-75
2023/04/16 10:08:49;;;;;;;29.27;19.48;;;;;;;9.12;100.00;102381.75;4999050;28;20099;-76
2023/04/16 10:11:19;;;;;;;30.70;19.60;;;;;;;9.10;100.00;102371.31;4993185;28;20482;-76
2023/04/16 10:13:45;;;;;;;31.05;19.75;;;;;;;9.14;100.00;102379.91;5021478;28;20091;-75
2023/04/16 10:16:11;;;;;;;28.55;19.35;;;;;;;9.16;100.00;102378.06;4991550;28;20026;-75
2023/04/16 10:18:38;;;;;;;30.85;19.35;;;;;;;9.18;100.00;102378.84;5007341;28;20498;-75
2023/04/16 10:21:04;;;;;;;32.25;19.45;;;;;;;9.17;100.00;102377.16;4992534;28;20030;-74
2023/04/16 10:23:30;;;;;;;29.27;18.77;;;;;;;9.16;100.00;102378.06;4988737;28;20034;-74
2023/04/16 10:25:57;;;;;;;29.98;19.88;;;;;;;9.19;100.00;102377.94;4991439;28;20030;-75
2023/04/16 10:34:35;;;;;;;28.88;19.98;;;;;;;9.15;100.00;102379.00;5035154;28;20057;-81
2023/04/16 10:37:04;;;;;;;32.13;19.45;;;;;;;9.12;100.00;102389.63;5044521;28;20477;-81
2023/04/16 10:39:43;;;;;;;32.65;19.55;;;;;;;9.08;100.00;102382.81;5041994;28;20029;-82
2023/04/16 10:42:15;;;;;;;36.42;20.92;;;;;;;9.09;100.00;102393.25;5049511;28;20071;-82
2023/04/16 10:44:41;;;;;;;30.33;20.48;;;;;;;9.11;100.00;102386.16;5052245;28;20032;-82
2023/04/16 10:47:26;;;;;;;29.08;19.85;;;;;;;9.17;100.00;102387.66;5050051;28;20024;-82
2023/04/16 10:49:57;;;;;;;31.42;20.45;;;;;;;9.18;100.00;102389.34;5033181;28;20026;-82
2023/04/16 10:55:19;;;;;;;34.78;20.98;;;;;;;9.13;100.00;102383.44;5048828;28;20619;-82
2023/04/16 10:57:48;;;;;;;31.85;21.05;;;;;;;9.24;100.00;102383.00;5050873;28;20025;-82
2023/04/16 11:00:49;;;;;;;32.13;20.88;;;;;;;9.24;100.00;102386.50;5051911;28;20029;-82
2023/04/16 11:03:19;;;;;;;32.33;20.95;;;;;;;9.19;100.00;102385.81;5051822;28;20390;-82
2023/04/16 11:05:45;;;;;;;35.47;21.35;;;;;;;9.26;100.00;102386.41;5052382;28;20052;-82
2023/04/16 11:08:16;;;;;;;30.40;21.13;;;;;;;9.24;100.00;102389.13;5049883;28;20025;-82
2023/04/16 11:10:41;;;;;;;30.38;20.73;;;;;;;9.23;100.00;102382.16;5052240;28;20071;-82
2023/04/16 11:13:11;;;;;;;32.50;19.92;;;;;;;9.28;100.00;102380.19;5050238;28;20032;-82
2023/04/16 11:15:47;;;;;;;28.30;19.83;;;;;;;9.31;100.00;102380.03;5047235;28;20052;-82
2023/04/16 11:18:18;;;;;;;29.23;21.27;;;;;;;9.38;100.00;102381.47;5041132;28;20074;-82